sensor_id;sensor_type;location;lat;lon;timestamp;pressure;altitude;pressure_sealevel;temperature;humidity
69971;BME280;57301;50.328;8.542;2023-05-20T00:00:41;98946.41;;;11.24;72.22
69971;BME280;57301;50.328;8.542;2023-05-20T00:03:10;98950.59;;;11.36;71.45
69971;BME280;57301;50.328;8.542;2023-05-20T00:05:36;98940.78;;;11.54;70.94
69971;BME280;57301;50.328;8.542;2023-05-20T00:08:03;98943.25;;;11.66;70.35
69971;BME280;57301;50.328;8.542;2023-05-20T00:10:33;98941.69;;;11.73;70.12
69971;BME280;57301;50.328;8.542;2023-05-20T00:12:59;98930.22;;;11.80;70.06
69971;BME280;57301;50.328;8.542;2023-05-20T00:15:26;98931.78;;;11.83;69.50
69971;BME280;57301;50.328;8.542;2023-05-20T00:17:54;98930.78;;;11.84;69.56
69971;BME280;57301;50.328;8.542;2023-05-20T00:20:20;98935.41;;;11.92;69.77
69971;BME280;57301;50.328;8.542;2023-05-20T00:22:47;98931.88;;;11.91;69.70
69971;BME280;57301;50.328;8.542;2023-05-20T00:25:13;98933.56;;;11.92;69.91
69971;BME280;57301;50.328;8.542;2023-05-20T00:27:40;98931.28;;;11.97;69.63
69971;BME280;57301;50.328;8.542;2023-05-20T00:30:07;98925.81;;;11.89;70.03
69971;BME280;57301;50.328;8.542;2023-05-20T00:32:34;98928.22;;;11.92;70.22
69971;BME280;57301;50.328;8.542;2023-05-20T00:35:01;98925.16;;;11.87;71.18
69971;BME280;57301;50.328;8.542;2023-05-20T00:37:28;98930.88;;;11.92;70.66
69971;BME280;57301;50.328;8.542;2023-05-20T00:39:55;98927.44;;;11.82;70.57
69971;BME280;57301;50.328;8.542;2023-05-20T00:42:25;98929.09;;;11.83;70.95
69971;BME280;57301;50.328;8.542;2023-05-20T00:44:53;98928.34;;;11.91;70.52
69971;BME280;57301;50.328;8.542;2023-05-20T00:47:33;98928.22;;;11.92;70.14
69971;BME280;57301;50.328;8.542;2023-05-20T00:50:02;98916.69;;;11.92;70.63
69971;BME280;57301;50.328;8.542;2023-05-20T00:52:31;98922.47;;;11.87;70.38
69971;BME280;57301;50.328;8.542;2023-05-20T00:54:58;98913.00;;;11.93;70.38
69971;BME280;57301;50.328;8.542;2023-05-20T00:57:25;98913.19;;;11.91;70.02
69971;BME280;57301;50.328;8.542;2023-05-20T00:59:52;98911.63;;;11.89;70.77
69971;BME280;57301;50.328;8.542;2023-05-20T01:02:19;98921.47;;;11.88;69.97
69971;BME280;57301;50.328;8.542;2023-05-20T01:04:46;98913.84;;;11.93;70.21
69971;BME280;57301;50.328;8.542;2023-05-20T01:07:16;98916.06;;;11.98;70.05
69971;BME280;57301;50.328;8.542;2023-05-20T01:09:44;98914.53;;;11.95;69.82
69971;BME280;57301;50.328;8.542;2023-05-20T01:14:55;98910.97;;;12.04;69.44
69971;BME280;57301;50.328;8.542;2023-05-20T01:17:27;98908.19;;;11.96;69.51
69971;BME280;57301;50.328;8.542;2023-05-20T01:19:58;98913.00;;;11.93;70.13
69971;BME280;57301;50.328;8.542;2023-05-20T01:22:26;98907.34;;;11.96;70.38
69971;BME280;57301;50.328;8.542;2023-05-20T01:24:52;98910.94;;;11.87;70.06
69971;BME280;57301;50.328;8.542;2023-05-20T01:27:20;98906.06;;;11.82;70.41
69971;BME280;57301;50.328;8.542;2023-05-20T01:29:51;98903.88;;;11.68;70.58
69971;BME280;57301;50.328;8.542;2023-05-20T01:32:22;98910.75;;;11.70;71.43
69971;BME280;57301;50.328;8.542;2023-05-20T01:34:50;98904.03;;;11.66;71.12
69971;BME280;57301;50.328;8.542;2023-05-20T01:37:21;98905.00;;;11.65;71.07
69971;BME280;57301;50.328;8.542;2023-05-20T01:39:49;98900.50;;;11.48;71.78
69971;BME280;57301;50.328;8.542;2023-05-20T01:42:16;98903.09;;;11.57;71.31
69971;BME280;57301;50.328;8.542;2023-05-20T01:44:43;98906.19;;;11.53;71.46
69971;BME280;57301;50.328;8.542;2023-05-20T01:47:10;98901.94;;;11.42;71.86
69971;BME280;57301;50.328;8.542;2023-05-20T01:49:37;98897.28;;;11.44;71.84
69971;BME280;57301;50.328;8.542;2023-05-20T01:52:04;98888.34;;;11.36;72.28
69971;BME280;57301;50.328;8.542;2023-05-20T01:54:31;98888.47;;;11.34;72.21
69971;BME280;57301;50.328;8.542;2023-05-20T01:56:57;98882.59;;;11.30;73.42
69971;BME280;57301;50.328;8.542;2023-05-20T01:59:24;98894.34;;;11.38;72.65
69971;BME280;57301;50.328;8.542;2023-05-20T02:01:50;98888.81;;;11.21;73.38
69971;BME280;57301;50.328;8.542;2023-05-20T02:04:17;98888.88;;;11.12;73.77
69971;BME280;57301;50.328;8.542;2023-05-20T02:06:44;98892.38;;;11.12;74.16
69971;BME280;57301;50.328;8.542;2023-05-20T02:09:11;98892.66;;;11.09;74.03
69971;BME280;57301;50.328;8.542;2023-05-20T02:11:38;98890.72;;;11.01;74.84
69971;BME280;57301;50.328;8.542;2023-05-20T02:14:04;98888.41;;;10.79;76.44
69971;BME280;57301;50.328;8.542;2023-05-20T02:16:31;98886.47;;;10.71;76.75
69971;BME280;57301;50.328;8.542;2023-05-20T02:18:57;98877.53;;;10.63;77.81
69971;BME280;57301;50.328;8.542;2023-05-20T02:21:24;98878.72;;;10.78;75.92
69971;BME280;57301;50.328;8.542;2023-05-20T02:23:51;98873.13;;;10.81;76.12
69971;BME280;57301;50.328;8.542;2023-05-20T02:26:17;98878.50;;;10.62;77.65
69971;BME280;57301;50.328;8.542;2023-05-20T02:28:45;98879.16;;;10.73;77.95
69971;BME280;57301;50.328;8.542;2023-05-20T02:31:16;98887.75;;;10.67;77.64
69971;BME280;57301;50.328;8.542;2023-05-20T02:33:43;98883.66;;;10.73;77.94
69971;BME280;57301;50.328;8.542;2023-05-20T02:36:10;98877.69;;;10.52;79.25
69971;BME280;57301;50.328;8.542;2023-05-20T02:38:37;98876.97;;;10.59;78.39
69971;BME280;57301;50.328;8.542;2023-05-20T02:41:03;98871.31;;;10.72;77.62
69971;BME280;57301;50.328;8.542;2023-05-20T02:43:31;98873.97;;;10.82;78.10
69971;BME280;57301;50.328;8.542;2023-05-20T02:45:58;98868.91;;;10.79;78.10
69971;BME280;57301;50.328;8.542;2023-05-20T02:48:24;98873.56;;;10.76;78.50
69971;BME280;57301;50.328;8.542;2023-05-20T02:50:51;98875.63;;;10.83;78.55
69971;BME280;57301;50.328;8.542;2023-05-20T02:53:18;98871.69;;;10.87;77.55
69971;BME280;57301;50.328;8.542;2023-05-20T02:55:45;98875.06;;;10.89;78.36
69971;BME280;57301;50.328;8.542;2023-05-20T02:58:15;98873.78;;;10.93;77.63
69971;BME280;57301;50.328;8.542;2023-05-20T03:00:43;98876.81;;;10.98;77.25
69971;BME280;57301;50.328;8.542;2023-05-20T03:03:09;98873.03;;;11.00;78.08
69971;BME280;57301;50.328;8.542;2023-05-20T03:05:36;98875.59;;;10.92;77.79
69971;BME280;57301;50.328;8.542;2023-05-20T03:08:09;98863.63;;;11.06;77.78
69971;BME280;57301;50.328;8.542;2023-05-20T03:10:39;98871.03;;;11.12;77.53
69971;BME280;57301;50.328;8.542;2023-05-20T03:13:06;98867.53;;;11.12;77.64
69971;BME280;57301;50.328;8.542;2023-05-20T03:15:34;98863.19;;;11.28;77.07
69971;BME280;57301;50.328;8.542;2023-05-20T03:18:02;98860.69;;;11.27;77.56
69971;BME280;57301;50.328;8.542;2023-05-20T03:20:29;98860.84;;;11.25;77.22
69971;BME280;57301;50.328;8.542;2023-05-20T03:22:57;98857.66;;;11.40;76.94
69971;BME280;57301;50.328;8.542;2023-05-20T03:25:24;98857.22;;;11.44;77.21
69971;BME280;57301;50.328;8.542;2023-05-20T03:27:51;98856.66;;;11.41;77.48
69971;BME280;57301;50.328;8.542;2023-05-20T03:30:18;98859.50;;;11.39;77.19
69971;BME280;57301;50.328;8.542;2023-05-20T03:32:44;98855.97;;;11.39;77.72
69971;BME280;57301;50.328;8.542;2023-05-20T03:35:11;98863.00;;;11.40;77.39
69971;BME280;57301;50.328;8.542;2023-05-20T03:37:38;98860.91;;;11.34;78.43
69971;BME280;57301;50.328;8.542;2023-05-20T03:40:06;98858.22;;;11.43;77.58
69971;BME280;57301;50.328;8.542;2023-05-20T03:42:32;98856.06;;;11.47;77.18
69971;BME280;57301;50.328;8.542;2023-05-20T03:44:59;98852.44;;;11.48;77.65
69971;BME280;57301;50.328;8.542;2023-05-20T03:47:27;98855.78;;;11.50;77.42
69971;BME280;57301;50.328;8.542;2023-05-20T03:49:54;98849.66;;;11.57;76.95
69971;BME280;57301;50.328;8.542;2023-05-20T03:52:20;98852.88;;;11.61;77.48
69971;BME280;57301;50.328;8.542;2023-05-20T03:54:47;98849.06;;;11.64;76.97
69971;BME280;57301;50.328;8.542;2023-05-20T03:57:13;98842.72;;;11.65;76.39
69971;BME280;57301;50.328;8.542;2023-05-20T03:59:43;98847.16;;;11.74;76.59
69971;BME280;57301;50.328;8.542;2023-05-20T04:02:09;98844.56;;;11.64;76.90
69971;BME280;57301;50.328;8.542;2023-05-20T04:04:36;98850.97;;;11.71;76.93
69971;BME280;57301;50.328;8.542;2023-05-20T04:07:03;98852.19;;;11.59;77.11
69971;BME280;57301;50.328;8.542;2023-05-20T04:09:36;98865.78;;;11.66;77.31
69971;BME280;57301;50.328;8.542;2023-05-20T04:12:04;98861.66;;;11.71;76.83
69971;BME280;57301;50.328;8.542;2023-05-20T04:14:32;98870.59;;;11.80;77.01
69971;BME280;57301;50.328;8.542;2023-05-20T04:17:02;98860.03;;;11.78;77.02
69971;BME280;57301;50.328;8.542;2023-05-20T04:19:30;98860.63;;;11.82;76.75
69971;BME280;57301;50.328;8.542;2023-05-20T04:21:56;98856.50;;;11.88;76.35
69971;BME280;57301;50.328;8.542;2023-05-20T04:24:24;98856.56;;;11.96;76.67
69971;BME280;57301;50.328;8.542;2023-05-20T04:26:51;98855.44;;;11.98;75.77
69971;BME280;57301;50.328;8.542;2023-05-20T04:29:17;98851.94;;;11.98;76.46
69971;BME280;57301;50.328;8.542;2023-05-20T04:31:45;98856.78;;;12.02;76.14
69971;BME280;57301;50.328;8.542;2023-05-20T04:34:13;98854.44;;;11.99;76.11
69971;BME280;57301;50.328;8.542;2023-05-20T04:36:40;98850.22;;;12.15;75.81
69971;BME280;57301;50.328;8.542;2023-05-20T04:39:06;98850.97;;;12.25;75.83
69971;BME280;57301;50.328;8.542;2023-05-20T04:41:33;98848.25;;;12.17;76.02
69971;BME280;57301;50.328;8.542;2023-05-20T04:44:01;98846.09;;;12.20;75.52
69971;BME280;57301;50.328;8.542;2023-05-20T04:46:29;98843.94;;;12.24;75.54
69971;BME280;57301;50.328;8.542;2023-05-20T04:48:57;98852.19;;;12.30;74.96
69971;BME280;57301;50.328;8.542;2023-05-20T04:51:23;98850.56;;;12.37;75.22
69971;BME280;57301;50.328;8.542;2023-05-20T04:53:50;98846.44;;;12.43;75.25
69971;BME280;57301;50.328;8.542;2023-05-20T04:56:16;98856.06;;;12.36;75.41
69971;BME280;57301;50.328;8.542;2023-05-20T04:58:43;98852.41;;;12.37;75.67
69971;BME280;57301;50.328;8.542;2023-05-20T05:01:09;98843.00;;;12.33;75.72
69971;BME280;57301;50.328;8.542;2023-05-20T05:03:36;98847.88;;;12.37;75.26
69971;BME280;57301;50.328;8.542;2023-05-20T05:06:02;98844.41;;;12.45;75.16
69971;BME280;57301;50.328;8.542;2023-05-20T05:08:29;98845.03;;;12.39;75.17
69971;BME280;57301;50.328;8.542;2023-05-20T05:10:55;98848.47;;;12.49;74.89
69971;BME280;57301;50.328;8.542;2023-05-20T05:13:22;98848.16;;;12.52;74.73
69971;BME280;57301;50.328;8.542;2023-05-20T05:15:57;98849.06;;;12.61;74.69
69971;BME280;57301;50.328;8.542;2023-05-20T05:18:24;98849.25;;;12.68;74.72
69971;BME280;57301;50.328;8.542;2023-05-20T05:21:06;98845.38;;;12.62;74.68
69971;BME280;57301;50.328;8.542;2023-05-20T05:23:32;98840.34;;;12.59;75.82
69971;BME280;57301;50.328;8.542;2023-05-20T05:25:59;98836.69;;;12.60;75.14
69971;BME280;57301;50.328;8.542;2023-05-20T05:28:26;98831.13;;;12.53;75.66
69971;BME280;57301;50.328;8.542;2023-05-20T05:30:55;98838.34;;;12.61;74.38
69971;BME280;57301;50.328;8.542;2023-05-20T05:33:22;98840.94;;;12.71;75.00
69971;BME280;57301;50.328;8.542;2023-05-20T05:35:49;98834.88;;;12.69;75.78
69971;BME280;57301;50.328;8.542;2023-05-20T05:38:16;98836.63;;;12.78;75.21
69971;BME280;57301;50.328;8.542;2023-05-20T05:40:42;98837.94;;;12.82;75.25
69971;BME280;57301;50.328;8.542;2023-05-20T05:43:09;98828.78;;;12.84;75.16
69971;BME280;57301;50.328;8.542;2023-05-20T05:45:36;98838.00;;;12.90;74.42
69971;BME280;57301;50.328;8.542;2023-05-20T05:48:02;98838.03;;;12.98;74.55
69971;BME280;57301;50.328;8.542;2023-05-20T05:50:29;98831.13;;;13.22;73.24
69971;BME280;57301;50.328;8.542;2023-05-20T05:52:56;98831.81;;;13.24;73.48
69971;BME280;57301;50.328;8.542;2023-05-20T05:55:22;98830.81;;;13.25;73.86
69971;BME280;57301;50.328;8.542;2023-05-20T05:57:49;98822.94;;;13.23;72.71
69971;BME280;57301;50.328;8.542;2023-05-20T06:00:16;98828.28;;;13.23;72.75
69971;BME280;57301;50.328;8.542;2023-05-20T06:02:43;98825.56;;;13.15;72.81
69971;BME280;57301;50.328;8.542;2023-05-20T06:05:10;98830.31;;;13.21;73.31
69971;BME280;57301;50.328;8.542;2023-05-20T06:07:36;98823.47;;;13.35;72.87
69971;BME280;57301;50.328;8.542;2023-05-20T06:10:03;98822.53;;;13.52;72.28
69971;BME280;57301;50.328;8.542;2023-05-20T06:12:30;98814.84;;;13.65;71.56
69971;BME280;57301;50.328;8.542;2023-05-20T06:14:56;98821.38;;;13.79;71.56
69971;BME280;57301;50.328;8.542;2023-05-20T06:17:23;98824.94;;;14.12;70.41
69971;BME280;57301;50.328;8.542;2023-05-20T06:19:50;98823.56;;;14.49;69.52
69971;BME280;57301;50.328;8.542;2023-05-20T06:22:16;98825.25;;;14.50;69.73
69971;BME280;57301;50.328;8.542;2023-05-20T06:24:43;98820.88;;;14.57;68.55
69971;BME280;57301;50.328;8.542;2023-05-20T06:27:09;98817.53;;;14.31;69.78
69971;BME280;57301;50.328;8.542;2023-05-20T06:29:36;98821.88;;;14.40;69.46
69971;BME280;57301;50.328;8.542;2023-05-20T06:32:02;98823.56;;;14.24;69.72
69971;BME280;57301;50.328;8.542;2023-05-20T06:34:29;98819.53;;;14.53;69.63
69971;BME280;57301;50.328;8.542;2023-05-20T06:36:55;98813.81;;;14.23;70.29
69971;BME280;57301;50.328;8.542;2023-05-20T06:39:23;98814.69;;;14.16;70.67
69971;BME280;57301;50.328;8.542;2023-05-20T06:41:50;98816.50;;;14.23;70.61
69971;BME280;57301;50.328;8.542;2023-05-20T06:44:18;98817.03;;;14.03;70.92
69971;BME280;57301;50.328;8.542;2023-05-20T06:46:44;98816.03;;;14.04;72.06
69971;BME280;57301;50.328;8.542;2023-05-20T06:49:11;98817.84;;;14.28;70.26
69971;BME280;57301;50.328;8.542;2023-05-20T06:51:37;98818.69;;;14.04;70.20
69971;BME280;57301;50.328;8.542;2023-05-20T06:54:04;98810.16;;;14.08;70.94
69971;BME280;57301;50.328;8.542;2023-05-20T06:56:30;98810.16;;;13.92;70.64
69971;BME280;57301;50.328;8.542;2023-05-20T06:58:57;98818.53;;;13.97;71.19
69971;BME280;57301;50.328;8.542;2023-05-20T07:01:23;98817.72;;;13.88;71.87
69971;BME280;57301;50.328;8.542;2023-05-20T07:03:50;98815.50;;;13.92;71.53
69971;BME280;57301;50.328;8.542;2023-05-20T07:06:17;98807.47;;;14.08;70.97
69971;BME280;57301;50.328;8.542;2023-05-20T07:08:43;98805.78;;;14.23;71.68
69971;BME280;57301;50.328;8.542;2023-05-20T07:11:10;98800.94;;;14.27;70.56
69971;BME280;57301;50.328;8.542;2023-05-20T07:13:37;98797.03;;;14.54;69.49
69971;BME280;57301;50.328;8.542;2023-05-20T07:16:03;98798.06;;;14.53;69.81
69971;BME280;57301;50.328;8.542;2023-05-20T07:18:30;98808.31;;;14.49;69.65
69971;BME280;57301;50.328;8.542;2023-05-20T07:20:57;98803.78;;;14.50;69.37
69971;BME280;57301;50.328;8.542;2023-05-20T07:23:23;98793.53;;;14.62;69.24
69971;BME280;57301;50.328;8.542;2023-05-20T07:25:52;98802.72;;;14.67;69.50
69971;BME280;57301;50.328;8.542;2023-05-20T07:28:19;98806.34;;;14.83;68.36
69971;BME280;57301;50.328;8.542;2023-05-20T07:30:46;98804.19;;;14.78;68.24
69971;BME280;57301;50.328;8.542;2023-05-20T07:33:16;98800.25;;;14.97;67.17
69971;BME280;57301;50.328;8.542;2023-05-20T07:35:43;98790.63;;;14.80;68.47
69971;BME280;57301;50.328;8.542;2023-05-20T07:38:11;98807.91;;;15.16;67.09
69971;BME280;57301;50.328;8.542;2023-05-20T07:40:38;98783.75;;;15.39;66.15
69971;BME280;57301;50.328;8.542;2023-05-20T07:43:07;98800.38;;;15.43;67.67
69971;BME280;57301;50.328;8.542;2023-05-20T07:45:34;98795.91;;;14.96;67.50
69971;BME280;57301;50.328;8.542;2023-05-20T07:48:03;98798.41;;;15.37;67.11
69971;BME280;57301;50.328;8.542;2023-05-20T07:50:30;98801.59;;;15.32;67.03
69971;BME280;57301;50.328;8.542;2023-05-20T07:52:57;98788.09;;;15.17;67.77
69971;BME280;57301;50.328;8.542;2023-05-20T07:55:23;98791.00;;;15.62;66.30
69971;BME280;57301;50.328;8.542;2023-05-20T07:57:50;98786.13;;;15.88;65.62
69971;BME280;57301;50.328;8.542;2023-05-20T08:00:16;98794.03;;;15.58;66.86
69971;BME280;57301;50.328;8.542;2023-05-20T08:02:43;98789.25;;;15.77;65.71
69971;BME280;57301;50.328;8.542;2023-05-20T08:05:10;98785.16;;;15.58;66.20
69971;BME280;57301;50.328;8.542;2023-05-20T08:07:36;98783.44;;;15.88;67.06
69971;BME280;57301;50.328;8.542;2023-05-20T08:10:03;98778.16;;;16.18;63.81
69971;BME280;57301;50.328;8.542;2023-05-20T08:12:30;98774.72;;;16.38;63.66
69971;BME280;57301;50.328;8.542;2023-05-20T08:14:56;98768.56;;;16.53;63.66
69971;BME280;57301;50.328;8.542;2023-05-20T08:17:23;98763.69;;;16.63;63.53
69971;BME280;57301;50.328;8.542;2023-05-20T08:19:50;98756.03;;;16.89;62.14
69971;BME280;57301;50.328;8.542;2023-05-20T08:22:16;98766.63;;;16.91;62.45
69971;BME280;57301;50.328;8.542;2023-05-20T08:24:42;98757.94;;;17.25;61.92
69971;BME280;57301;50.328;8.542;2023-05-20T08:27:09;98756.75;;;18.20;59.47
69971;BME280;57301;50.328;8.542;2023-05-20T08:29:36;98762.84;;;18.57;58.81
69971;BME280;57301;50.328;8.542;2023-05-20T08:32:02;98762.84;;;18.01;59.47
69971;BME280;57301;50.328;8.542;2023-05-20T08:34:29;98759.06;;;18.79;57.70
69971;BME280;57301;50.328;8.542;2023-05-20T08:36:56;98765.53;;;18.57;57.83
69971;BME280;57301;50.328;8.542;2023-05-20T08:39:24;98769.03;;;18.50;56.94
69971;BME280;57301;50.328;8.542;2023-05-20T08:41:51;98756.94;;;18.74;56.89
69971;BME280;57301;50.328;8.542;2023-05-20T08:44:18;98756.16;;;18.81;56.86
69971;BME280;57301;50.328;8.542;2023-05-20T08:46:46;98758.25;;;18.57;57.39
69971;BME280;57301;50.328;8.542;2023-05-20T08:49:14;98751.94;;;18.71;57.97
69971;BME280;57301;50.328;8.542;2023-05-20T08:51:40;98747.38;;;19.20;56.52
69971;BME280;57301;50.328;8.542;2023-05-20T08:54:08;98755.09;;;18.82;57.16
69971;BME280;57301;50.328;8.542;2023-05-20T08:56:37;98755.78;;;17.99;58.12
69971;BME280;57301;50.328;8.542;2023-05-20T08:59:04;98757.22;;;17.59;59.67
69971;BME280;57301;50.328;8.542;2023-05-20T09:01:33;98759.69;;;17.18;61.53
69971;BME280;57301;50.328;8.542;2023-05-20T09:04:04;98756.16;;;17.17;61.98
69971;BME280;57301;50.328;8.542;2023-05-20T09:06:51;98757.06;;;16.88;62.37
69971;BME280;57301;50.328;8.542;2023-05-20T09:09:19;98767.00;;;16.88;62.52
69971;BME280;57301;50.328;8.542;2023-05-20T09:11:45;98760.94;;;16.86;62.91
69971;BME280;57301;50.328;8.542;2023-05-20T09:14:12;98769.19;;;16.99;63.48
69971;BME280;57301;50.328;8.542;2023-05-20T09:16:39;98764.38;;;17.31;61.86
69971;BME280;57301;50.328;8.542;2023-05-20T09:19:06;98759.47;;;17.34;60.74
69971;BME280;57301;50.328;8.542;2023-05-20T09:21:35;98761.38;;;17.77;60.04
69971;BME280;57301;50.328;8.542;2023-05-20T09:24:02;98767.25;;;16.93;61.38
69971;BME280;57301;50.328;8.542;2023-05-20T09:26:29;98763.25;;;17.61;61.02
69971;BME280;57301;50.328;8.542;2023-05-20T09:28:56;98760.31;;;16.84;62.75
69971;BME280;57301;50.328;8.542;2023-05-20T09:31:32;98765.22;;;16.95;64.96
69971;BME280;57301;50.328;8.542;2023-05-20T09:34:00;98766.03;;;17.46;62.33
69971;BME280;57301;50.328;8.542;2023-05-20T09:36:28;98766.28;;;17.52;61.88
69971;BME280;57301;50.328;8.542;2023-05-20T09:38:57;98762.09;;;17.49;62.69
69971;BME280;57301;50.328;8.542;2023-05-20T09:41:33;98755.72;;;17.14;62.94
69971;BME280;57301;50.328;8.542;2023-05-20T09:44:01;98753.78;;;17.08;62.63
69971;BME280;57301;50.328;8.542;2023-05-20T09:46:29;98752.75;;;17.45;61.57
69971;BME280;57301;50.328;8.542;2023-05-20T09:48:57;98748.75;;;17.41;61.76
69971;BME280;57301;50.328;8.542;2023-05-20T09:51:25;98752.59;;;17.32;62.95
69971;BME280;57301;50.328;8.542;2023-05-20T09:53:53;98747.44;;;17.15;64.05
69971;BME280;57301;50.328;8.542;2023-05-20T09:56:22;98746.19;;;17.18;63.69
69971;BME280;57301;50.328;8.542;2023-05-20T09:58:51;98749.44;;;17.28;63.78
69971;BME280;57301;50.328;8.542;2023-05-20T10:01:23;98733.66;;;17.25;64.14
69971;BME280;57301;50.328;8.542;2023-05-20T10:03:51;98734.31;;;17.49;62.26
69971;BME280;57301;50.328;8.542;2023-05-20T10:06:49;98732.13;;;17.59;62.71
69971;BME280;57301;50.328;8.542;2023-05-20T10:11:58;98728.28;;;17.10;64.05
69971;BME280;57301;50.328;8.542;2023-05-20T10:15:00;98735.88;;;17.22;63.20
69971;BME280;57301;50.328;8.542;2023-05-20T10:20:17;98730.00;;;17.33;63.53
69971;BME280;57301;50.328;8.542;2023-05-20T10:22:54;98731.38;;;17.43;63.60
69971;BME280;57301;50.328;8.542;2023-05-20T10:25:27;98720.09;;;17.18;63.71
69971;BME280;57301;50.328;8.542;2023-05-20T10:28:07;98728.34;;;17.53;62.69
69971;BME280;57301;50.328;8.542;2023-05-20T10:30:34;98726.09;;;17.35;62.32
69971;BME280;57301;50.328;8.542;2023-05-20T10:33:05;98730.34;;;17.44;62.86
69971;BME280;57301;50.328;8.542;2023-05-20T10:35:33;98730.06;;;17.39;62.62
69971;BME280;57301;50.328;8.542;2023-05-20T10:38:10;98726.28;;;17.34;62.64
69971;BME280;57301;50.328;8.542;2023-05-20T10:40:37;98720.66;;;17.71;61.54
69971;BME280;57301;50.328;8.542;2023-05-20T10:43:11;98724.34;;;17.28;62.38
69971;BME280;57301;50.328;8.542;2023-05-20T10:45:48;98724.06;;;17.37;61.63
69971;BME280;57301;50.328;8.542;2023-05-20T10:48:33;98729.28;;;17.67;61.28
69971;BME280;57301;50.328;8.542;2023-05-20T10:51:02;98732.09;;;17.73;61.87
69971;BME280;57301;50.328;8.542;2023-05-20T10:53:39;98727.91;;;17.50;61.74
69971;BME280;57301;50.328;8.542;2023-05-20T10:56:18;98727.63;;;17.66;61.70
69971;BME280;57301;50.328;8.542;2023-05-20T10:58:47;98725.56;;;17.46;61.96
69971;BME280;57301;50.328;8.542;2023-05-20T11:01:14;98720.81;;;17.49;61.57
69971;BME280;57301;50.328;8.542;2023-05-20T11:03:45;98732.19;;;17.65;61.30
69971;BME280;57301;50.328;8.542;2023-05-20T11:06:16;98730.47;;;17.79;60.37
69971;BME280;57301;50.328;8.542;2023-05-20T11:08:44;98724.63;;;18.25;59.74
69971;BME280;57301;50.328;8.542;2023-05-20T11:11:12;98725.03;;;18.57;58.62
69971;BME280;57301;50.328;8.542;2023-05-20T11:13:40;98726.72;;;18.64;59.66
69971;BME280;57301;50.328;8.542;2023-05-20T11:16:06;98720.59;;;18.84;57.84
69971;BME280;57301;50.328;8.542;2023-05-20T11:18:33;98710.09;;;19.83;54.71
69971;BME280;57301;50.328;8.542;2023-05-20T11:21:00;98713.78;;;19.69;55.75
69971;BME280;57301;50.328;8.542;2023-05-20T11:23:28;98703.84;;;19.89;55.00
69971;BME280;57301;50.328;8.542;2023-05-20T11:25:56;98686.19;;;19.05;58.65
69971;BME280;57301;50.328;8.542;2023-05-20T11:28:22;98687.16;;;19.92;55.70
69971;BME280;57301;50.328;8.542;2023-05-20T11:30:52;98685.72;;;19.90;53.98
69971;BME280;57301;50.328;8.542;2023-05-20T11:33:19;98683.19;;;19.95;54.45
69971;BME280;57301;50.328;8.542;2023-05-20T11:35:50;98670.94;;;19.72;55.01
69971;BME280;57301;50.328;8.542;2023-05-20T11:38:19;98675.91;;;20.08;53.36
69971;BME280;57301;50.328;8.542;2023-05-20T11:40:49;98674.41;;;20.39;53.17
69971;BME280;57301;50.328;8.542;2023-05-20T11:43:17;98672.72;;;20.45;53.91
69971;BME280;57301;50.328;8.542;2023-05-20T11:45:46;98680.00;;;20.57;52.41
69971;BME280;57301;50.328;8.542;2023-05-20T11:48:13;98673.38;;;20.27;53.30
69971;BME280;57301;50.328;8.542;2023-05-20T11:50:45;98695.41;;;19.38;53.89
69971;BME280;57301;50.328;8.542;2023-05-20T11:53:17;98690.78;;;19.12;55.52
69971;BME280;57301;50.328;8.542;2023-05-20T11:55:57;98697.50;;;19.36;54.70
69971;BME280;57301;50.328;8.542;2023-05-20T11:58:29;98683.13;;;19.28;55.78
69971;BME280;57301;50.328;8.542;2023-05-20T12:00:56;98677.59;;;20.03;54.30
69971;BME280;57301;50.328;8.542;2023-05-20T12:03:39;98679.66;;;19.94;53.54
69971;BME280;57301;50.328;8.542;2023-05-20T12:06:06;98688.41;;;20.09;53.01
69971;BME280;57301;50.328;8.542;2023-05-20T12:08:32;98672.00;;;20.82;52.10
69971;BME280;57301;50.328;8.542;2023-05-20T12:10:59;98669.16;;;20.57;51.45
69971;BME280;57301;50.328;8.542;2023-05-20T12:13:25;98664.66;;;19.98;53.83
69971;BME280;57301;50.328;8.542;2023-05-20T12:15:52;98672.38;;;19.88;53.05
69971;BME280;57301;50.328;8.542;2023-05-20T12:18:18;98666.75;;;20.09;53.85
69971;BME280;57301;50.328;8.542;2023-05-20T12:20:45;98681.97;;;19.71;54.25
69971;BME280;57301;50.328;8.542;2023-05-20T12:23:12;98672.47;;;19.07;55.52
69971;BME280;57301;50.328;8.542;2023-05-20T12:25:38;98662.50;;;19.21;55.43
69971;BME280;57301;50.328;8.542;2023-05-20T12:28:05;98658.13;;;20.52;54.57
69971;BME280;57301;50.328;8.542;2023-05-20T12:30:32;98656.97;;;20.80;51.22
69971;BME280;57301;50.328;8.542;2023-05-20T12:32:59;98658.84;;;20.01;53.49
69971;BME280;57301;50.328;8.542;2023-05-20T12:35:40;98664.47;;;19.67;54.25
69971;BME280;57301;50.328;8.542;2023-05-20T12:38:07;98656.69;;;19.17;55.83
69971;BME280;57301;50.328;8.542;2023-05-20T12:40:34;98659.06;;;19.73;54.55
69971;BME280;57301;50.328;8.542;2023-05-20T12:43:03;98652.97;;;19.25;57.15
69971;BME280;57301;50.328;8.542;2023-05-20T12:45:30;98649.28;;;19.79;52.66
69971;BME280;57301;50.328;8.542;2023-05-20T12:47:57;98657.53;;;19.31;54.15
69971;BME280;57301;50.328;8.542;2023-05-20T12:50:24;98666.91;;;19.22;54.63
69971;BME280;57301;50.328;8.542;2023-05-20T12:52:51;98663.19;;;19.49;53.95
69971;BME280;57301;50.328;8.542;2023-05-20T12:55:18;98652.19;;;19.91;54.16
69971;BME280;57301;50.328;8.542;2023-05-20T12:57:45;98656.34;;;19.93;54.05
69971;BME280;57301;50.328;8.542;2023-05-20T13:00:13;98660.06;;;20.05;52.84
69971;BME280;57301;50.328;8.542;2023-05-20T13:02:41;98656.34;;;20.78;51.40
69971;BME280;57301;50.328;8.542;2023-05-20T13:05:10;98654.50;;;21.48;48.68
69971;BME280;57301;50.328;8.542;2023-05-20T13:07:37;98654.53;;;22.23;47.95
69971;BME280;57301;50.328;8.542;2023-05-20T13:10:06;98656.56;;;22.03;48.01
69971;BME280;57301;50.328;8.542;2023-05-20T13:12:33;98646.22;;;23.21;47.28